Time;durP1;ratioP1;P1;durP2;ratioP2;P2;SDS_P1;SDS_P2;PMS_P1;PMS_P2;Temp;Humidity;BMP_temperature;BMP_pressure;BME280_temperature;BME280_humidity;BME280_pressure;Samples;Min_cycle;Max_cycle;Signal;HPM_P1;HPM_P2
2022/12/18 00:00:04;;;;;;;69.93;43.40;;;;;;;;;;4407414;32;319122;-89
2022/12/18 00:02:31;;;;;;;69.67;41.47;;;;;;;;;;4417501;32;318966;-86
2022/12/18 00:04:58;;;;;;;66.13;39.13;;;;;;;;;;4407348;32;318814;-88
2022/12/18 00:07:26;;;;;;;73.73;46.00;;;;;;;;;;4418325;32;318749;-87
2022/12/18 00:09:53;;;;;;;99.37;60.40;;;;;;;;;;4391822;32;318792;-88
2022/12/18 00:12:21;;;;;;;111.20;69.70;;;;;;;;;;4418261;32;319163;-87
2022/12/18 00:14:48;;;;;;;82.77;58.30;;;;;;;;;;4417786;32;319793;-82
2022/12/18 00:17:17;;;;;;;62.83;37.93;;;;;;;;;;4404502;32;418388;-88
2022/12/18 00:19:44;;;;;;;52.07;31.23;;;;;;;;;;4417928;32;318923;-88
2022/12/18 00:22:11;;;;;;;43.57;27.87;;;;;;;;;;4407366;32;318913;-89
2022/12/18 00:24:39;;;;;;;54.57;33.03;;;;;;;;;;4418861;32;318844;-88
2022/12/18 00:27:06;;;;;;;115.30;76.70;;;;;;;;;;4405467;32;318872;-89
2022/12/18 00:29:34;;;;;;;106.33;74.33;;;;;;;;;;4418262;32;319543;-89
2022/12/18 00:32:01;;;;;;;81.90;56.10;;;;;;;;;;4406653;32;320082;-85
2022/12/18 00:34:30;;;;;;;69.50;44.33;;;;;;;;;;4418580;32;319124;-88
2022/12/18 00:36:57;;;;;;;64.27;41.40;;;;;;;;;;4408210;32;319104;-86
2022/12/18 00:39:25;;;;;;;50.80;34.77;;;;;;;;;;4418282;32;318923;-84
2022/12/18 00:44:37;;;;;;;49.20;34.40;;;;;;;;;;4417392;32;318653;-88
2022/12/18 00:47:05;;;;;;;52.80;32.43;;;;;;;;;;4404808;32;318686;-86
2022/12/18 00:49:33;;;;;;;55.93;34.70;;;;;;;;;;4417220;32;355204;-86
2022/12/18 00:52:01;;;;;;;50.27;34.07;;;;;;;;;;4407070;32;318806;-89
2022/12/18 00:54:28;;;;;;;66.57;43.33;;;;;;;;;;4415846;32;318703;-84
2022/12/18 00:56:56;;;;;;;62.63;44.73;;;;;;;;;;4406222;32;318759;-88
2022/12/18 00:59:23;;;;;;;85.47;53.37;;;;;;;;;;4417129;32;318722;-88
2022/12/18 01:01:51;;;;;;;89.77;63.20;;;;;;;;;;4406571;32;318734;-86
2022/12/18 01:04:18;;;;;;;84.40;61.70;;;;;;;;;;4417287;32;342250;-85
2022/12/18 01:06:47;;;;;;;82.77;61.57;;;;;;;;;;4415567;32;318713;-87
2022/12/18 01:09:14;;;;;;;90.77;65.37;;;;;;;;;;4405220;32;318984;-87
2022/12/18 01:11:41;;;;;;;103.70;72.17;;;;;;;;;;4416940;32;318673;-88
2022/12/18 01:14:09;;;;;;;121.73;71.30;;;;;;;;;;4407313;32;320599;-87
2022/12/18 01:16:37;;;;;;;132.23;74.07;;;;;;;;;;4417118;32;319940;-86
2022/12/18 01:19:04;;;;;;;104.10;62.77;;;;;;;;;;4405752;32;319867;-85
2022/12/18 01:21:31;;;;;;;96.87;60.33;;;;;;;;;;4416905;32;319900;-88
2022/12/18 01:24:00;;;;;;;89.87;52.70;;;;;;;;;;4407317;32;318633;-89
2022/12/18 01:26:29;;;;;;;66.43;39.67;;;;;;;;;;4417261;32;318892;-86
2022/12/18 01:28:57;;;;;;;62.00;39.50;;;;;;;;;;4403713;32;318854;-87
2022/12/18 01:31:25;;;;;;;59.93;38.10;;;;;;;;;;4416560;32;318746;-86
2022/12/18 01:33:54;;;;;;;53.20;35.27;;;;;;;;;;4406682;32;318747;-88
2022/12/18 01:36:23;;;;;;;50.93;35.30;;;;;;;;;;4415162;32;318789;-84
2022/12/18 01:38:52;;;;;;;44.53;28.90;;;;;;;;;;4406290;32;318841;-84
2022/12/18 01:41:23;;;;;;;43.27;28.27;;;;;;;;;;4417141;32;318852;-87
2022/12/18 01:43:53;;;;;;;43.93;28.40;;;;;;;;;;4416219;32;318965;-86
2022/12/18 01:46:23;;;;;;;56.37;33.37;;;;;;;;;;4403728;32;418145;-84
2022/12/18 01:48:55;;;;;;;60.33;35.50;;;;;;;;;;4415964;32;319217;-85
2022/12/18 01:51:22;;;;;;;43.90;30.57;;;;;;;;;;4401935;32;418451;-86
2022/12/18 01:53:50;;;;;;;52.37;32.77;;;;;;;;;;4417337;32;319045;-81
2022/12/18 01:56:21;;;;;;;80.07;53.00;;;;;;;;;;4403042;32;417986;-84
2022/12/18 01:58:56;;;;;;;65.53;45.40;;;;;;;;;;4416770;32;319255;-87
2022/12/18 02:01:24;;;;;;;61.77;41.47;;;;;;;;;;4401406;32;418153;-84
2022/12/18 02:03:52;;;;;;;65.07;40.47;;;;;;;;;;4406286;32;319189;-84
2022/12/18 02:06:25;;;;;;;55.37;35.53;;;;;;;;;;4417007;32;318780;-85
2022/12/18 02:09:04;;;;;;;45.67;29.90;;;;;;;;;;4405363;32;318947;-84
2022/12/18 02:11:44;;;;;;;39.97;28.07;;;;;;;;;;4414496;32;318929;-88
2022/12/18 02:14:20;;;;;;;37.40;22.87;;;;;;;;;;4405297;32;319185;-83
2022/12/18 02:16:54;;;;;;;33.30;19.07;;;;;;;;;;4415968;32;318719;-81
2022/12/18 02:19:55;;;;;;;39.70;23.50;;;;;;;;;;4401776;32;418230;-82
2022/12/18 02:22:31;;;;;;;52.57;29.63;;;;;;;;;;4400741;32;418995;-80
2022/12/18 02:25:12;;;;;;;60.07;29.47;;;;;;;;;;4404930;32;319809;-86
2022/12/18 02:27:42;;;;;;;47.50;27.73;;;;;;;;;;4416066;32;318752;-78
2022/12/18 02:30:10;;;;;;;44.30;26.13;;;;;;;;;;4404627;32;318733;-82
2022/12/18 02:32:41;;;;;;;43.00;24.40;;;;;;;;;;4414002;32;318836;-78
2022/12/18 02:35:16;;;;;;;41.27;24.57;;;;;;;;;;4405606;32;319490;-78
2022/12/18 02:37:47;;;;;;;47.03;25.97;;;;;;;;;;4415191;32;319198;-79
2022/12/18 02:40:17;;;;;;;28.27;17.37;;;;;;;;;;4404918;32;319234;-79
2022/12/18 02:42:47;;;;;;;38.37;21.67;;;;;;;;;;4413915;32;318730;-87
2022/12/18 02:45:14;;;;;;;32.47;21.20;;;;;;;;;;4401975;32;318928;-86
2022/12/18 02:47:46;;;;;;;31.63;21.03;;;;;;;;;;4416180;32;319129;-78
2022/12/18 02:50:23;;;;;;;30.80;18.87;;;;;;;;;;4404393;32;318810;-86
2022/12/18 02:53:02;;;;;;;23.10;16.80;;;;;;;;;;4406477;32;318802;-81
2022/12/18 02:55:41;;;;;;;26.87;16.90;;;;;;;;;;4414404;32;339465;-87
2022/12/18 02:58:18;;;;;;;25.80;19.20;;;;;;;;;;4404860;32;318759;-81
2022/12/18 03:00:52;;;;;;;18.53;15.63;;;;;;;;;;4414736;32;319127;-86
2022/12/18 03:03:25;;;;;;;23.30;17.63;;;;;;;;;;4403111;32;419489;-88
2022/12/18 03:05:59;;;;;;;24.13;16.77;;;;;;;;;;4406095;32;318794;-88
2022/12/18 03:08:30;;;;;;;18.73;15.20;;;;;;;;;;4415501;32;318893;-86
2022/12/18 03:11:01;;;;;;;20.00;16.33;;;;;;;;;;4405311;32;319031;-84
2022/12/18 03:13:37;;;;;;;7.97;6.83;;;;;;;;;;4413378;32;318640;-85
2022/12/18 03:16:08;;;;;;;10.93;7.60;;;;;;;;;;4403701;32;316761;-87
2022/12/18 03:18:40;;;;;;;9.20;7.97;;;;;;;;;;4416468;32;317915;-86
2022/12/18 03:21:09;;;;;;;10.20;7.30;;;;;;;;;;4404722;32;327592;-88
2022/12/18 03:23:41;;;;;;;11.97;6.60;;;;;;;;;;4414875;32;317501;-83
2022/12/18 03:26:11;;;;;;;13.20;7.03;;;;;;;;;;4407386;32;317739;-81
2022/12/18 03:28:44;;;;;;;9.17;7.20;;;;;;;;;;4419441;32;317844;-88
2022/12/18 03:31:15;;;;;;;11.20;6.60;;;;;;;;;;4406986;32;334022;-85
2022/12/18 03:33:47;;;;;;;9.50;7.17;;;;;;;;;;4418216;32;325864;-87
2022/12/18 03:36:15;;;;;;;15.03;7.73;;;;;;;;;;4408498;32;316660;-84
2022/12/18 03:38:43;;;;;;;11.30;7.93;;;;;;;;;;4419412;32;317730;-89
2022/12/18 03:41:19;;;;;;;19.27;8.20;;;;;;;;;;4407328;32;317761;-82
2022/12/18 03:43:53;;;;;;;19.67;10.23;;;;;;;;;;4419372;32;317961;-85
2022/12/18 03:46:28;;;;;;;16.33;9.60;;;;;;;;;;4405780;32;418238;-85
2022/12/18 03:49:03;;;;;;;16.37;8.27;;;;;;;;;;4409009;32;317815;-87
2022/12/18 03:51:38;;;;;;;28.17;9.63;;;;;;;;;;4419425;32;317766;-85
2022/12/18 03:54:08;;;;;;;25.67;10.07;;;;;;;;;;4405985;32;347066;-88
2022/12/18 03:56:40;;;;;;;18.13;9.43;;;;;;;;;;4419077;32;318685;-88
2022/12/18 03:59:12;;;;;;;20.87;10.10;;;;;;;;;;4408558;32;317765;-84
2022/12/18 04:01:43;;;;;;;22.53;11.80;;;;;;;;;;4417773;32;318909;-87
2022/12/18 04:04:12;;;;;;;20.43;11.60;;;;;;;;;;4407346;32;318945;-83
2022/12/18 04:06:41;;;;;;;22.67;12.13;;;;;;;;;;4417923;32;318698;-87
2022/12/18 04:09:09;;;;;;;21.37;12.10;;;;;;;;;;4406265;32;318804;-87
2022/12/18 04:11:36;;;;;;;15.33;9.10;;;;;;;;;;4417984;32;318909;-81
2022/12/18 04:14:04;;;;;;;16.47;8.87;;;;;;;;;;4407561;32;317708;-89
2022/12/18 04:16:32;;;;;;;15.33;9.53;;;;;;;;;;4417898;32;317952;-88
2022/12/18 04:19:00;;;;;;;17.03;11.10;;;;;;;;;;4408780;32;318005;-86
2022/12/18 04:21:27;;;;;;;15.07;11.70;;;;;;;;;;4415932;32;318937;-86
2022/12/18 04:23:55;;;;;;;17.60;11.73;;;;;;;;;;4408045;32;318889;-85
2022/12/18 04:26:22;;;;;;;17.73;11.23;;;;;;;;;;4418773;32;319591;-84
2022/12/18 04:28:50;;;;;;;15.23;10.63;;;;;;;;;;4418643;32;318937;-86
2022/12/18 04:31:17;;;;;;;12.70;7.77;;;;;;;;;;4405530;32;417939;-88
2022/12/18 04:33:46;;;;;;;9.10;6.30;;;;;;;;;;4417371;32;317779;-86
2022/12/18 04:36:13;;;;;;;14.23;8.43;;;;;;;;;;4405625;32;323913;-87
2022/12/18 04:38:41;;;;;;;15.60;9.80;;;;;;;;;;4418023;32;317909;-88
2022/12/18 04:41:08;;;;;;;13.20;7.73;;;;;;;;;;4407932;32;317765;-79
2022/12/18 04:43:35;;;;;;;15.47;10.20;;;;;;;;;;4417597;32;317906;-89
2022/12/18 04:46:04;;;;;;;14.20;10.17;;;;;;;;;;4405832;32;318873;-87
2022/12/18 04:48:31;;;;;;;12.23;8.43;;;;;;;;;;4417440;32;318655;-87
2022/12/18 04:51:00;;;;;;;14.47;8.90;;;;;;;;;;4400497;32;317483;-87
2022/12/18 04:53:28;;;;;;;11.37;7.80;;;;;;;;;;4402952;32;317857;-85
2022/12/18 04:56:04;;;;;;;7.27;5.97;;;;;;;;;;4407253;32;317997;-88
2022/12/18 04:58:32;;;;;;;7.20;5.90;;;;;;;;;;4416507;32;316577;-87
2022/12/18 05:00:59;;;;;;;9.87;7.67;;;;;;;;;;4407050;32;317129;-85
2022/12/18 05:03:26;;;;;;;12.40;7.77;;;;;;;;;;4416873;32;316750;-89
2022/12/18 05:05:54;;;;;;;8.87;6.93;;;;;;;;;;4406208;32;317863;-87
2022/12/18 05:08:23;;;;;;;12.43;8.10;;;;;;;;;;4417625;32;316577;-89
2022/12/18 05:10:50;;;;;;;17.10;9.33;;;;;;;;;;4418194;32;317729;-88
2022/12/18 05:13:17;;;;;;;16.73;11.30;;;;;;;;;;4403788;32;417128;-88
2022/12/18 05:15:53;;;;;;;9.97;7.50;;;;;;;;;;4414076;32;318890;-89
2022/12/18 05:18:20;;;;;;;11.37;7.77;;;;;;;;;;4404929;32;415652;-89
2022/12/18 05:20:47;;;;;;;10.00;7.83;;;;;;;;;;4415712;32;343912;-88
2022/12/18 05:23:15;;;;;;;12.23;7.00;;;;;;;;;;4406173;32;317746;-87
2022/12/18 05:25:44;;;;;;;10.77;8.00;;;;;;;;;;4416740;32;317719;-88
2022/12/18 05:28:11;;;;;;;12.40;7.80;;;;;;;;;;4407332;32;317816;-89
2022/12/18 05:30:38;;;;;;;12.77;7.27;;;;;;;;;;4416545;32;317912;-87
2022/12/18 05:33:06;;;;;;;10.63;7.03;;;;;;;;;;4405647;32;317679;-87
2022/12/18 05:35:33;;;;;;;10.97;6.47;;;;;;;;;;4417041;32;318020;-85
2022/12/18 05:38:00;;;;;;;14.50;7.20;;;;;;;;;;4405534;32;334576;-79
2022/12/18 05:40:28;;;;;;;17.90;7.63;;;;;;;;;;4416410;32;317742;-88
2022/12/18 05:42:57;;;;;;;9.03;6.20;;;;;;;;;;4405846;32;317673;-89
2022/12/18 05:45:24;;;;;;;9.83;5.47;;;;;;;;;;4417388;32;316664;-86
2022/12/18 05:47:51;;;;;;;8.13;6.17;;;;;;;;;;4404906;32;378017;-84
2022/12/18 05:50:18;;;;;;;8.40;5.70;;;;;;;;;;4416033;32;316704;-88
2022/12/18 05:52:46;;;;;;;6.23;5.50;;;;;;;;;;4417324;32;316912;-88
2022/12/18 05:55:13;;;;;;;8.87;4.70;;;;;;;;;;4406647;32;316693;-88
2022/12/18 05:57:41;;;;;;;7.20;4.43;;;;;;;;;;4416180;32;316587;-87
2022/12/18 06:00:11;;;;;;;5.60;4.07;;;;;;;;;;4406731;32;316610;-87
2022/12/18 06:02:39;;;;;;;5.70;4.47;;;;;;;;;;4415995;32;316676;-88
2022/12/18 06:05:07;;;;;;;6.80;6.07;;;;;;;;;;4406963;32;316610;-88
2022/12/18 06:07:35;;;;;;;14.83;12.23;;;;;;;;;;4416722;32;316629;-87
2022/12/18 06:10:02;;;;;;;8.77;6.93;;;;;;;;;;4403769;32;318976;-87
2022/12/18 06:12:30;;;;;;;7.03;5.93;;;;;;;;;;4416892;32;316676;-89
2022/12/18 06:14:57;;;;;;;10.70;5.60;;;;;;;;;;4404637;32;316974;-86
2022/12/18 06:17:29;;;;;;;5.87;5.13;;;;;;;;;;4414926;32;318068;-86
2022/12/18 06:19:56;;;;;;;5.80;4.70;;;;;;;;;;4405175;32;344520;-85
2022/12/18 06:22:24;;;;;;;6.60;4.87;;;;;;;;;;4414143;32;316670;-82
2022/12/18 06:24:51;;;;;;;8.83;5.83;;;;;;;;;;4405335;32;316635;-84
2022/12/18 06:27:19;;;;;;;10.70;6.47;;;;;;;;;;4415957;32;316776;-84
2022/12/18 06:29:46;;;;;;;14.83;9.03;;;;;;;;;;4416150;32;317744;-88
2022/12/18 06:32:13;;;;;;;15.80;8.90;;;;;;;;;;4403704;32;317834;-87
2022/12/18 06:34:42;;;;;;;14.87;10.77;;;;;;;;;;4414014;32;318243;-87
2022/12/18 06:37:09;;;;;;;11.93;7.43;;;;;;;;;;4403951;32;318864;-86
2022/12/18 06:39:37;;;;;;;11.47;7.50;;;;;;;;;;4415823;32;317837;-85
2022/12/18 06:42:04;;;;;;;9.83;7.57;;;;;;;;;;4406723;32;318371;-87
2022/12/18 06:44:32;;;;;;;11.90;7.67;;;;;;;;;;4416052;32;315551;-90
2022/12/18 06:46:59;;;;;;;14.47;8.57;;;;;;;;;;4406258;32;317885;-89
2022/12/18 06:49:27;;;;;;;15.70;9.80;;;;;;;;;;4414275;32;318022;-90
2022/12/18 06:51:55;;;;;;;19.30;10.83;;;;;;;;;;4405689;32;318130;-89
2022/12/18 06:54:23;;;;;;;16.17;10.43;;;;;;;;;;4415474;32;319066;-90
2022/12/18 06:56:50;;;;;;;14.47;10.37;;;;;;;;;;4416296;32;318975;-91
2022/12/18 06:59:18;;;;;;;17.67;9.67;;;;;;;;;;4400635;32;418243;-90
2022/12/18 07:01:45;;;;;;;15.80;12.17;;;;;;;;;;4416648;32;317637;-90
2022/12/18 07:04:12;;;;;;;22.47;15.40;;;;;;;;;;4405025;32;354327;-89
2022/12/18 07:06:40;;;;;;;23.63;14.27;;;;;;;;;;4415623;32;318891;-89
2022/12/18 07:09:09;;;;;;;35.07;17.07;;;;;;;;;;4405245;32;318872;-82
2022/12/18 07:11:36;;;;;;;22.63;13.30;;;;;;;;;;4416529;32;318973;-85
2022/12/18 07:14:03;;;;;;;26.23;12.70;;;;;;;;;;4404537;32;319024;-85
2022/12/18 07:16:31;;;;;;;28.27;16.60;;;;;;;;;;4416473;32;319148;-83
2022/12/18 07:18:58;;;;;;;22.50;15.13;;;;;;;;;;4405444;32;318841;-84
2022/12/18 07:21:26;;;;;;;21.63;15.30;;;;;;;;;;4414833;32;318749;-85
2022/12/18 07:23:54;;;;;;;16.80;11.47;;;;;;;;;;4402674;32;319171;-84
2022/12/18 07:26:23;;;;;;;14.87;9.13;;;;;;;;;;4416130;32;318873;-85
2022/12/18 07:28:51;;;;;;;16.48;9.90;;;;;;;;;;4414495;32;318112;-84
2022/12/18 07:31:21;;;;;;;9.23;6.37;;;;;;;;;;4415417;32;318149;-84
2022/12/18 07:33:48;;;;;;;10.07;8.67;;;;;;;;;;4416631;32;316697;-85
2022/12/18 07:36:16;;;;;;;11.10;8.87;;;;;;;;;;4403318;32;416799;-83
2022/12/18 07:38:48;;;;;;;10.17;8.33;;;;;;;;;;4416038;32;317816;-85
2022/12/18 07:41:15;;;;;;;11.23;9.47;;;;;;;;;;4390601;32;317932;-83
2022/12/18 07:43:44;;;;;;;11.37;8.83;;;;;;;;;;4415120;32;326436;-85
2022/12/18 07:46:13;;;;;;;13.43;10.23;;;;;;;;;;4404877;32;318245;-88
2022/12/18 07:48:40;;;;;;;20.63;12.87;;;;;;;;;;4416510;32;318880;-92
2022/12/18 07:51:08;;;;;;;15.67;9.70;;;;;;;;;;4404615;32;318963;-82
2022/12/18 07:53:37;;;;;;;15.93;12.17;;;;;;;;;;4416464;32;317940;-90
2022/12/18 07:56:07;;;;;;;15.97;12.20;;;;;;;;;;4403566;32;324836;-89
2022/12/18 07:58:35;;;;;;;13.37;11.17;;;;;;;;;;4416285;32;318830;-88
2022/12/18 08:01:08;;;;;;;9.23;7.53;;;;;;;;;;4404305;32;319086;-84
2022/12/18 08:03:36;;;;;;;9.10;7.33;;;;;;;;;;4413890;32;316676;-88
2022/12/18 08:06:05;;;;;;;13.83;9.40;;;;;;;;;;4404805;32;316812;-91
2022/12/18 08:08:34;;;;;;;12.60;6.63;;;;;;;;;;4416307;32;317927;-90
2022/12/18 08:11:02;;;;;;;7.67;6.23;;;;;;;;;;4403212;32;357208;-87
2022/12/18 08:13:30;;;;;;;10.10;8.73;;;;;;;;;;4417199;32;316892;-91
2022/12/18 08:15:58;;;;;;;9.97;7.83;;;;;;;;;;4407458;32;318208;-92
2022/12/18 08:18:27;;;;;;;11.00;9.87;;;;;;;;;;4419017;32;317381;-89
2022/12/18 08:20:55;;;;;;;12.10;8.53;;;;;;;;;;4406156;32;318115;-90
2022/12/18 08:23:22;;;;;;;16.07;7.67;;;;;;;;;;4418215;32;317874;-88
2022/12/18 08:25:51;;;;;;;11.50;7.73;;;;;;;;;;4417013;32;317837;-89
2022/12/18 08:28:18;;;;;;;8.60;7.33;;;;;;;;;;4405469;32;416983;-90
2022/12/18 08:30:46;;;;;;;8.37;6.13;;;;;;;;;;4416943;32;317280;-91
2022/12/18 08:33:13;;;;;;;9.10;6.67;;;;;;;;;;4407568;32;317467;-88
2022/12/18 08:35:42;;;;;;;17.90;11.40;;;;;;;;;;4416898;32;316943;-91
2022/12/18 08:38:09;;;;;;;10.70;8.40;;;;;;;;;;4406998;32;331357;-84
2022/12/18 08:40:37;;;;;;;11.67;9.53;;;;;;;;;;4418115;32;317891;-89
2022/12/18 08:45:49;;;;;;;8.33;6.67;;;;;;;;;;4418174;32;317811;-90
2022/12/18 08:48:17;;;;;;;7.87;5.97;;;;;;;;;;4404232;32;416078;-91
2022/12/18 08:50:54;;;;;;;9.50;7.70;;;;;;;;;;4416761;32;316718;-87
2022/12/18 08:53:21;;;;;;;7.20;5.80;;;;;;;;;;4405183;32;416250;-91
2022/12/18 08:55:49;;;;;;;8.87;5.97;;;;;;;;;;4416148;32;316756;-90
2022/12/18 08:58:17;;;;;;;9.53;6.40;;;;;;;;;;4404459;32;416048;-89
2022/12/18 09:00:44;;;;;;;7.60;6.07;;;;;;;;;;4416696;32;316734;-92
2022/12/18 09:03:13;;;;;;;7.13;5.67;;;;;;;;;;4407290;32;316859;-93
2022/12/18 09:05:41;;;;;;;10.43;9.23;;;;;;;;;;4416554;32;317032;-89
2022/12/18 09:08:10;;;;;;;17.43;14.63;;;;;;;;;;4406494;32;317867;-87
2022/12/18 09:10:43;;;;;;;13.70;9.57;;;;;;;;;;4416842;32;318822;-84
2022/12/18 09:13:12;;;;;;;14.60;8.98;;;;;;;;;;4405373;32;317939;-89
2022/12/18 09:15:42;;;;;;;19.90;12.60;;;;;;;;;;4417316;32;317690;-88
2022/12/18 09:18:10;;;;;;;32.13;20.57;;;;;;;;;;4405653;32;319030;-90
2022/12/18 09:20:37;;;;;;;24.03;12.63;;;;;;;;;;4417890;32;318840;-83
2022/12/18 09:23:05;;;;;;;11.70;8.40;;;;;;;;;;4405207;32;318999;-88
2022/12/18 09:25:35;;;;;;;14.97;8.97;;;;;;;;;;4416637;32;317927;-89
2022/12/18 09:28:03;;;;;;;17.43;10.33;;;;;;;;;;4405565;32;327035;-91
2022/12/18 09:30:33;;;;;;;22.53;14.13;;;;;;;;;;4415493;32;318930;-92
2022/12/18 09:33:00;;;;;;;18.50;12.03;;;;;;;;;;4405132;32;319042;-91
2022/12/18 09:35:27;;;;;;;16.30;11.53;;;;;;;;;;4417536;32;318935;-88
2022/12/18 09:37:55;;;;;;;16.37;11.50;;;;;;;;;;4405206;32;319056;-93
2022/12/18 09:40:25;;;;;;;20.10;9.50;;;;;;;;;;4417530;32;319188;-87
2022/12/18 09:42:58;;;;;;;12.07;8.60;;;;;;;;;;4406932;32;317898;-85
2022/12/18 09:45:26;;;;;;;15.27;10.43;;;;;;;;;;4416706;32;317832;-92
2022/12/18 09:47:56;;;;;;;15.57;11.50;;;;;;;;;;4403204;32;319329;-83
2022/12/18 09:50:29;;;;;;;18.20;9.07;;;;;;;;;;4417394;32;319605;-90
2022/12/18 09:52:59;;;;;;;15.03;11.13;;;;;;;;;;4405668;32;317724;-92
2022/12/18 09:55:31;;;;;;;11.93;7.90;;;;;;;;;;4414930;32;318910;-90
2022/12/18 09:58:05;;;;;;;8.90;6.37;;;;;;;;;;4406316;32;317979;-92
2022/12/18 10:00:33;;;;;;;7.37;5.07;;;;;;;;;;4415953;32;317126;-90
2022/12/18 10:03:05;;;;;;;6.13;5.13;;;;;;;;;;4405476;32;316826;-87
2022/12/18 10:05:40;;;;;;;11.73;8.60;;;;;;;;;;4415915;32;316622;-89
2022/12/18 10:08:12;;;;;;;17.07;10.60;;;;;;;;;;4403655;32;317781;-91
2022/12/18 10:10:46;;;;;;;20.60;11.03;;;;;;;;;;4417304;32;318632;-89
2022/12/18 10:13:25;;;;;;;30.50;16.00;;;;;;;;;;4405135;32;319004;-90
2022/12/18 10:16:09;;;;;;;53.83;24.23;;;;;;;;;;4406238;32;318844;-89
2022/12/18 10:19:12;;;;;;;23.17;12.73;;;;;;;;;;4416243;32;318751;-93
2022/12/18 10:21:48;;;;;;;32.23;15.60;;;;;;;;;;4403376;32;419093;-88
2022/12/18 10:24:23;;;;;;;17.07;12.10;;;;;;;;;;4405273;32;319031;-89
2022/12/18 10:26:53;;;;;;;16.67;11.93;;;;;;;;;;4412412;32;318994;-83
2022/12/18 10:29:22;;;;;;;17.63;12.80;;;;;;;;;;4416976;32;319034;-92
2022/12/18 10:31:49;;;;;;;27.03;18.80;;;;;;;;;;4417090;32;318846;-91
2022/12/18 10:34:17;;;;;;;27.73;17.33;;;;;;;;;;4402771;32;418655;-91
2022/12/18 10:36:44;;;;;;;31.63;17.93;;;;;;;;;;4417122;32;318839;-92
2022/12/18 10:39:20;;;;;;;42.17;25.10;;;;;;;;;;4409221;32;318794;-93
2022/12/18 10:41:50;;;;;;;22.03;13.87;;;;;;;;;;4414118;32;318852;-92
2022/12/18 10:44:19;;;;;;;22.77;15.93;;;;;;;;;;4403038;32;418489;-90
2022/12/18 10:46:51;;;;;;;25.53;13.77;;;;;;;;;;4417344;32;322192;-91
2022/12/18 10:49:24;;;;;;;188.53;75.20;;;;;;;;;;4402589;32;417593;-93
2022/12/18 10:52:05;;;;;;;61.07;28.20;;;;;;;;;;4406329;32;383214;-90
2022/12/18 10:54:33;;;;;;;18.50;11.60;;;;;;;;;;4414550;32;319000;-94
2022/12/18 10:57:16;;;;;;;25.57;14.70;;;;;;;;;;4404867;32;319173;-93
2022/12/18 10:59:52;;;;;;;44.93;20.63;;;;;;;;;;4415590;32;318892;-92
2022/12/18 11:02:34;;;;;;;36.80;23.27;;;;;;;;;;4404683;32;418660;-87
2022/12/18 11:05:01;;;;;;;20.50;14.50;;;;;;;;;;4406873;32;319000;-92
2022/12/18 11:07:49;;;;;;;23.57;14.47;;;;;;;;;;4416543;32;317670;-90
2022/12/18 11:10:19;;;;;;;28.93;15.70;;;;;;;;;;4402311;32;419371;-92
2022/12/18 11:12:47;;;;;;;16.83;11.03;;;;;;;;;;4417878;32;318800;-90
2022/12/18 11:15:21;;;;;;;31.57;22.13;;;;;;;;;;4406933;32;318934;-92
2022/12/18 11:17:52;;;;;;;13.03;10.07;;;;;;;;;;4417757;32;318708;-89
2022/12/18 11:20:31;;;;;;;17.50;11.50;;;;;;;;;;4403220;32;418268;-92
2022/12/18 11:23:01;;;;;;;16.10;9.63;;;;;;;;;;4406590;32;318859;-94
2022/12/18 11:25:29;;;;;;;32.63;18.40;;;;;;;;;;4417419;32;317743;-92
2022/12/18 11:27:57;;;;;;;15.20;11.10;;;;;;;;;;4405845;32;318603;-89
2022/12/18 11:30:28;;;;;;;16.27;11.07;;;;;;;;;;4415151;32;318752;-90
2022/12/18 11:33:02;;;;;;;18.40;10.70;;;;;;;;;;4403851;32;319221;-90
2022/12/18 11:35:48;;;;;;;14.57;11.03;;;;;;;;;;4414818;32;318631;-86
2022/12/18 11:38:25;;;;;;;16.37;10.63;;;;;;;;;;4405968;32;318762;-88
2022/12/18 11:40:58;;;;;;;16.57;11.27;;;;;;;;;;4404230;32;319153;-85
2022/12/18 11:43:29;;;;;;;16.10;11.23;;;;;;;;;;4415022;32;319112;-85
2022/12/18 11:46:03;;;;;;;17.03;11.53;;;;;;;;;;4404159;32;329978;-85
2022/12/18 11:48:38;;;;;;;17.93;13.13;;;;;;;;;;4417497;32;339171;-83
2022/12/18 11:51:10;;;;;;;18.90;13.53;;;;;;;;;;4408060;32;318752;-86
2022/12/18 11:53:39;;;;;;;16.23;10.80;;;;;;;;;;4419311;32;318608;-86
2022/12/18 11:56:30;;;;;;;19.47;13.23;;;;;;;;;;4407638;32;318993;-87
2022/12/18 11:59:05;;;;;;;36.80;24.13;;;;;;;;;;4408096;32;318777;-87
2022/12/18 12:01:47;;;;;;;26.47;16.00;;;;;;;;;;4418683;32;318881;-86
2022/12/18 12:04:40;;;;;;;30.80;17.23;;;;;;;;;;4408353;32;318743;-84
2022/12/18 12:07:22;;;;;;;26.97;17.80;;;;;;;;;;4407884;32;318755;-88
2022/12/18 12:10:02;;;;;;;27.60;17.83;;;;;;;;;;4418101;32;318935;-93
2022/12/18 12:12:49;;;;;;;23.93;16.00;;;;;;;;;;4405103;32;422205;-94
2022/12/18 12:15:29;;;;;;;17.87;11.57;;;;;;;;;;4403721;32;419326;-86
2022/12/18 12:18:03;;;;;;;24.43;13.57;;;;;;;;;;4407388;32;318936;-93
2022/12/18 12:20:45;;;;;;;30.73;20.27;;;;;;;;;;4416835;32;338005;-92
2022/12/18 12:23:19;;;;;;;19.93;13.17;;;;;;;;;;4410345;32;318946;-91
2022/12/18 12:25:53;;;;;;;19.83;14.77;;;;;;;;;;4420057;32;318890;-92
2022/12/18 12:28:34;;;;;;;20.40;14.20;;;;;;;;;;4407391;32;420272;-91
2022/12/18 12:31:13;;;;;;;36.73;23.27;;;;;;;;;;4408926;32;318558;-91
2022/12/18 12:33:48;;;;;;;40.90;22.60;;;;;;;;;;4419112;32;318812;-90
2022/12/18 12:36:23;;;;;;;44.13;25.07;;;;;;;;;;4405765;32;351264;-90
2022/12/18 12:38:56;;;;;;;17.83;13.50;;;;;;;;;;4418280;32;318737;-89
2022/12/18 12:44:18;;;;;;;25.57;16.17;;;;;;;;;;4406952;32;318622;-95
2022/12/18 12:46:46;;;;;;;17.03;11.97;;;;;;;;;;4417109;32;318844;-94
2022/12/18 12:49:16;;;;;;;12.20;9.93;;;;;;;;;;4404484;32;318932;-89
2022/12/18 12:51:50;;;;;;;13.87;10.73;;;;;;;;;;4418387;32;317797;-92
2022/12/18 12:54:22;;;;;;;12.50;9.27;;;;;;;;;;4404234;32;417660;-92
2022/12/18 12:56:57;;;;;;;16.37;11.37;;;;;;;;;;4417069;32;317776;-92
2022/12/18 12:59:32;;;;;;;15.73;12.53;;;;;;;;;;4404243;32;418590;-93
2022/12/18 13:02:05;;;;;;;13.63;9.57;;;;;;;;;;4406115;32;319504;-95
2022/12/18 13:04:38;;;;;;;23.67;15.20;;;;;;;;;;4418275;32;317636;-90
2022/12/18 13:07:16;;;;;;;19.97;13.27;;;;;;;;;;4407385;32;319420;-94
2022/12/18 13:10:15;;;;;;;20.80;13.17;;;;;;;;;;4417479;32;318943;-91
2022/12/18 13:12:57;;;;;;;24.20;18.13;;;;;;;;;;4402011;32;419654;-88
2022/12/18 13:15:37;;;;;;;22.60;16.40;;;;;;;;;;4402121;32;390059;-88
2022/12/18 13:18:12;;;;;;;25.83;18.80;;;;;;;;;;4406096;32;319051;-90
2022/12/18 13:20:42;;;;;;;29.03;19.63;;;;;;;;;;4416129;32;318919;-86
2022/12/18 13:23:32;;;;;;;36.47;26.57;;;;;;;;;;4405049;32;318975;-84
2022/12/18 13:26:01;;;;;;;25.90;17.77;;;;;;;;;;4406082;32;319040;-88
2022/12/18 13:28:54;;;;;;;17.40;13.80;;;;;;;;;;4415814;32;318901;-84
2022/12/18 13:32:10;;;;;;;71.83;44.70;;;;;;;;;;4402986;32;419278;-89
2022/12/18 13:34:38;;;;;;;26.30;17.20;;;;;;;;;;4402807;32;419034;-87
2022/12/18 13:37:42;;;;;;;21.20;15.07;;;;;;;;;;4405526;32;318884;-86
2022/12/18 13:40:58;;;;;;;23.37;15.80;;;;;;;;;;4407506;32;335068;-85
2022/12/18 13:43:42;;;;;;;21.57;16.53;;;;;;;;;;4403764;32;419138;-87
2022/12/18 13:46:22;;;;;;;28.83;19.57;;;;;;;;;;4404194;32;318987;-80
2022/12/18 13:48:59;;;;;;;37.83;24.10;;;;;;;;;;4416244;32;318694;-87
2022/12/18 13:51:27;;;;;;;29.77;18.90;;;;;;;;;;4402633;32;390220;-86
2022/12/18 13:53:57;;;;;;;22.47;18.17;;;;;;;;;;4406964;32;318988;-85
2022/12/18 13:56:27;;;;;;;30.47;18.63;;;;;;;;;;4416156;32;318498;-93
2022/12/18 13:59:24;;;;;;;28.97;18.80;;;;;;;;;;4406815;32;318806;-89
2022/12/18 14:01:54;;;;;;;26.90;19.70;;;;;;;;;;4379865;32;318876;-90
2022/12/18 14:04:25;;;;;;;37.20;24.53;;;;;;;;;;4416523;32;319024;-95
2022/12/18 14:06:56;;;;;;;37.57;22.93;;;;;;;;;;4405809;32;318803;-93
2022/12/18 14:09:27;;;;;;;32.13;24.33;;;;;;;;;;4414657;32;319078;-93
2022/12/18 14:12:56;;;;;;;37.53;25.13;;;;;;;;;;4403358;32;318965;-86
2022/12/18 14:14:49;;;;;;;49.83;30.63;;;;;;;;;;4415258;32;318726;-93
2022/12/18 14:17:17;;;;;;;110.53;60.60;;;;;;;;;;4403172;32;420698;-95
2022/12/18 14:19:47;;;;;;;118.57;68.60;;;;;;;;;;4416846;32;319665;-93
2022/12/18 14:22:18;;;;;;;68.40;40.50;;;;;;;;;;4406916;32;320153;-94
2022/12/18 14:24:45;;;;;;;57.30;34.50;;;;;;;;;;4414495;32;319172;-93
2022/12/18 14:27:25;;;;;;;42.77;26.73;;;;;;;;;;4406997;32;318588;-93
2022/12/18 14:29:53;;;;;;;62.77;39.77;;;;;;;;;;4405001;32;318973;-92
2022/12/18 14:32:22;;;;;;;48.97;30.67;;;;;;;;;;4417100;32;318789;-94
2022/12/18 14:34:52;;;;;;;67.70;40.13;;;;;;;;;;4415111;32;318902;-95
2022/12/18 14:37:22;;;;;;;63.10;38.73;;;;;;;;;;4403297;32;419265;-95
2022/12/18 14:39:58;;;;;;;49.77;32.23;;;;;;;;;;4414944;32;318826;-95
2022/12/18 14:42:33;;;;;;;50.03;33.13;;;;;;;;;;4402328;32;418226;-93